Ana Sayfa
METAR-TAF:

METAR-TAF

Havaalanları :

Wellsville Municipal Airport (Tarantine Field)

Wellsville, New York, Amerika Birleşik Devletleri

Enlem: 42-06-27N, Boylam: 077-59-04W, yükseklik: 647 m

Güncel hava durumu gözlemi

Rapor saat 11:56 UTC de 19 dakika önce yapıldı.
Rüzgar güney/güneydoğudan 10 kt
Sıcaklık 3°C
Nem 60%
Basınç 1015 hPa
Görüş mesafesi: 16.1 km
3200 ft yükseklikte parçalı çok bulutlu
4800 ft yükseklikte çok bulutlu

METAR: KELZ 091156Z AUTO 16010KT 10SM BKN032 OVC048 03/M04 A2996 RMK AO2 SLP164 60000 T00281044 10028 20017 56016 $

Saat: 07:15 (12:15 UTC)


TAF: eksik

4.000'den fazla havaalanı için hava durumu gözlemleri ve tahminleri (METAR ve TAF raporları).

Kullanılabilir istasyonlar harita üzerinde sarı ve kırmızı noktalarla gösterilir.

İstasyonun adını görmek için fareyi noktanın üzerinde gezdirin.

Sonrasında hava gözlem ve tahminlerini görmek için tıklayın.

Haritayı değiştirmek için: yaklaştırmak için siyah artı işaretli yeşil düğmeye ve uzaklaştırmak için de eksi işaretli düğmeye hızla tıklayın; bitişik haritalar için yeşil okları kullanın.


METAR-TAF: